Time;durP1;ratioP1;P1;durP2;ratioP2;P2;SDS_P1;SDS_P2;PMS_P1;PMS_P2;Temp;Humidity;BMP_temperature;BMP_pressure;BME280_temperature;BME280_humidity;BME280_pressure;Samples;Min_cycle;Max_cycle;Signal;HPM_P1;HPM_P2
2021/07/14 00:00:18;;;;;;;5.03;1.17;;;;;;;;;;5054045;28;20036;-55
2021/07/14 00:02:44;;;;;;;6.55;1.60;;;;;;;;;;5053875;28;20017;-54
2021/07/14 00:05:10;;;;;;;5.32;1.60;;;;;;;;;;5069057;28;20040;-55
2021/07/14 00:07:36;;;;;;;2.72;1.60;;;;;;;;;;5053909;28;20056;-55
2021/07/14 00:10:04;;;;;;;5.82;1.67;;;;;;;;;;5053843;28;20029;-55
2021/07/14 00:12:30;;;;;;;7.95;1.55;;;;;;;;;;5053878;28;20064;-55
2021/07/14 00:17:11;;;;;;;10.52;1.90;;;;;;;;;;5053685;28;20036;-55
2021/07/14 00:23:13;;;;;;;3.58;1.40;;;;;;;;;;5053659;28;20037;-56
2021/07/14 00:25:38;;;;;;;5.00;1.50;;;;;;;;;;5053435;28;20048;-54
2021/07/14 00:28:04;;;;;;;5.90;1.58;;;;;;;;;;5053413;28;20033;-56
2021/07/14 00:30:31;;;;;;;9.57;1.65;;;;;;;;;;5053292;28;20021;-54
2021/07/14 00:32:56;;;;;;;10.35;2.08;;;;;;;;;;5053516;28;20029;-54
2021/07/14 00:35:22;;;;;;;7.30;1.52;;;;;;;;;;5053521;28;20063;-55
2021/07/14 00:37:47;;;;;;;7.18;1.70;;;;;;;;;;5053372;28;20039;-54
2021/07/14 00:40:13;;;;;;;8.10;1.92;;;;;;;;;;5052968;28;20072;-54
2021/07/14 00:42:39;;;;;;;8.82;2.00;;;;;;;;;;5053312;28;20048;-55
2021/07/14 00:45:05;;;;;;;7.90;1.92;;;;;;;;;;5052689;28;20430;-56
2021/07/14 00:47:32;;;;;;;5.72;3.38;;;;;;;;;;5053292;28;20123;-56
2021/07/14 00:49:58;;;;;;;8.20;2.25;;;;;;;;;;5052678;28;20057;-55
2021/07/14 00:52:23;;;;;;;10.05;2.35;;;;;;;;;;5053156;28;20021;-55
2021/07/14 00:54:49;;;;;;;7.75;2.70;;;;;;;;;;5052839;28;20391;-54
2021/07/14 00:57:16;;;;;;;5.28;2.28;;;;;;;;;;5053119;28;20056;-54
2021/07/14 00:59:42;;;;;;;7.88;2.17;;;;;;;;;;5052743;28;20029;-54
2021/07/14 01:02:07;;;;;;;6.13;2.40;;;;;;;;;;5052752;28;20028;-54
2021/07/14 01:04:34;;;;;;;4.97;2.53;;;;;;;;;;5052796;28;20025;-54
2021/07/14 01:07:04;;;;;;;13.50;1.98;;;;;;;;;;5052584;28;20471;-54
2021/07/14 01:09:49;;;;;;;9.95;2.58;;;;;;;;;;5052894;28;20020;-54
2021/07/14 01:12:19;;;;;;;9.93;2.75;;;;;;;;;;5048365;28;20045;-55
2021/07/14 01:15:04;;;;;;;4.70;2.40;;;;;;;;;;5052568;28;20029;-54
2021/07/14 01:17:31;;;;;;;6.18;2.60;;;;;;;;;;5052412;28;20094;-54
2021/07/14 01:20:05;;;;;;;7.32;2.90;;;;;;;;;;5052785;28;20090;-54
2021/07/14 01:22:31;;;;;;;7.65;2.22;;;;;;;;;;5052278;28;20530;-54
2021/07/14 01:25:01;;;;;;;7.10;2.75;;;;;;;;;;5052751;28;20021;-55
2021/07/14 01:27:33;;;;;;;2.90;1.90;;;;;;;;;;5052332;28;20025;-54
2021/07/14 01:29:59;;;;;;;8.23;2.65;;;;;;;;;;5052594;28;20037;-54
2021/07/14 01:32:30;;;;;;;5.18;2.03;;;;;;;;;;5052243;28;20426;-54
2021/07/14 01:34:57;;;;;;;8.45;2.30;;;;;;;;;;5052400;28;20021;-54
2021/07/14 01:37:23;;;;;;;6.13;2.95;;;;;;;;;;5052457;28;20104;-53
2021/07/14 01:39:51;;;;;;;6.45;2.25;;;;;;;;;;5052217;28;20124;-54
2021/07/14 01:42:18;;;;;;;7.15;2.42;;;;;;;;;;5052209;28;20100;-54
2021/07/14 01:44:44;;;;;;;7.75;2.15;;;;;;;;;;5052157;28;20033;-54
2021/07/14 01:47:10;;;;;;;10.27;2.25;;;;;;;;;;5052415;28;20025;-55
2021/07/14 01:49:36;;;;;;;4.47;2.20;;;;;;;;;;5052102;28;20601;-55
2021/07/14 01:52:03;;;;;;;3.88;1.88;;;;;;;;;;5067533;28;20423;-54
2021/07/14 01:54:29;;;;;;;7.15;1.65;;;;;;;;;;5052122;28;20537;-54
2021/07/14 01:56:56;;;;;;;6.05;1.35;;;;;;;;;;5052706;28;20021;-54
2021/07/14 01:59:22;;;;;;;5.93;1.80;;;;;;;;;;5056072;28;20501;-54
2021/07/14 02:01:49;;;;;;;12.52;1.83;;;;;;;;;;5056423;28;20013;-55
2021/07/14 02:04:35;;;;;;;11.50;3.05;;;;;;;;;;5056291;28;20029;-54
2021/07/14 02:07:05;;;;;;;4.93;2.05;;;;;;;;;;5056087;28;20020;-54
2021/07/14 02:09:32;;;;;;;8.45;1.67;;;;;;;;;;5056256;28;20039;-54
2021/07/14 02:11:58;;;;;;;5.38;1.63;;;;;;;;;;5055865;28;20111;-54
2021/07/14 02:14:29;;;;;;;8.98;1.52;;;;;;;;;;5055809;28;20024;-54
2021/07/14 02:16:55;;;;;;;6.20;1.33;;;;;;;;;;5055895;28;20025;-54
2021/07/14 02:19:22;;;;;;;7.68;1.30;;;;;;;;;;5055614;28;20025;-54
2021/07/14 02:21:47;;;;;;;6.88;1.30;;;;;;;;;;5055733;28;20036;-54
2021/07/14 02:24:13;;;;;;;4.65;1.30;;;;;;;;;;5055985;28;20028;-55
2021/07/14 02:26:40;;;;;;;3.80;1.42;;;;;;;;;;5055601;28;20391;-54
2021/07/14 02:29:05;;;;;;;6.25;1.10;;;;;;;;;;5055957;28;20052;-54
2021/07/14 02:31:31;;;;;;;3.85;1.52;;;;;;;;;;5055515;28;20080;-54
2021/07/14 02:33:57;;;;;;;12.90;1.40;;;;;;;;;;5055861;28;20025;-54
2021/07/14 02:36:23;;;;;;;5.07;1.25;;;;;;;;;;5055472;28;20074;-54
2021/07/14 02:38:52;;;;;;;11.18;1.98;;;;;;;;;;5054108;28;20028;-54
2021/07/14 02:41:25;;;;;;;5.03;1.33;;;;;;;;;;5055267;28;20041;-53
2021/07/14 02:43:54;;;;;;;8.07;1.50;;;;;;;;;;5055393;28;20051;-54
2021/07/14 02:46:23;;;;;;;8.43;1.30;;;;;;;;;;5055344;28;20122;-54
2021/07/14 02:48:51;;;;;;;6.88;1.58;;;;;;;;;;5055399;28;20120;-54
2021/07/14 02:51:17;;;;;;;3.20;0.98;;;;;;;;;;5054240;28;20106;-54
2021/07/14 02:53:46;;;;;;;6.18;1.30;;;;;;;;;;5053961;28;20118;-54
2021/07/14 02:56:18;;;;;;;3.67;1.30;;;;;;;;;;5053797;28;20025;-54
2021/07/14 02:58:47;;;;;;;5.70;1.00;;;;;;;;;;5053839;28;20163;-54
2021/07/14 03:01:14;;;;;;;8.90;1.33;;;;;;;;;;5053775;28;20028;-54
2021/07/14 03:03:40;;;;;;;5.15;0.98;;;;;;;;;;5053762;28;20040;-54
2021/07/14 03:06:06;;;;;;;7.57;1.30;;;;;;;;;;5052876;28;20111;-54
2021/07/14 03:08:31;;;;;;;7.82;1.40;;;;;;;;;;5053531;28;20446;-54
2021/07/14 03:10:58;;;;;;;4.25;1.13;;;;;;;;;;5054007;28;20455;-54
2021/07/14 03:13:25;;;;;;;4.70;1.48;;;;;;;;;;5053805;28;20061;-54
2021/07/14 03:15:50;;;;;;;6.53;1.58;;;;;;;;;;5053591;28;20017;-54
2021/07/14 03:18:17;;;;;;;3.25;1.10;;;;;;;;;;5053535;28;20036;-54
2021/07/14 03:20:46;;;;;;;2.65;1.50;;;;;;;;;;5053533;28;20075;-54
2021/07/14 03:23:12;;;;;;;2.85;0.82;;;;;;;;;;5053707;28;20025;-53
2021/07/14 03:25:38;;;;;;;8.77;1.50;;;;;;;;;;5053577;28;20025;-53
2021/07/14 03:28:05;;;;;;;4.85;1.88;;;;;;;;;;5053485;28;20104;-54
2021/07/14 03:30:31;;;;;;;4.43;0.80;;;;;;;;;;5052084;28;20422;-54
2021/07/14 03:32:56;;;;;;;2.63;1.00;;;;;;;;;;5052467;28;20029;-54
2021/07/14 03:35:22;;;;;;;2.30;0.98;;;;;;;;;;5053297;28;20049;-54
2021/07/14 03:37:52;;;;;;;4.60;1.23;;;;;;;;;;5053209;28;20096;-54
2021/07/14 03:40:17;;;;;;;5.38;1.50;;;;;;;;;;5053223;28;20072;-54
2021/07/14 03:42:43;;;;;;;6.45;0.98;;;;;;;;;;5053222;28;20036;-54
2021/07/14 03:45:09;;;;;;;3.58;1.10;;;;;;;;;;5053065;28;20036;-54
2021/07/14 03:47:35;;;;;;;1.23;0.93;;;;;;;;;;5053510;28;20036;-54
2021/07/14 03:50:01;;;;;;;5.47;1.08;;;;;;;;;;5011399;28;1158969;-53
2021/07/14 03:52:27;;;;;;;4.47;1.20;;;;;;;;;;5053946;28;20471;-54
2021/07/14 03:54:53;;;;;;;3.13;0.75;;;;;;;;;;5054338;28;20044;-54
2021/07/14 03:57:19;;;;;;;5.90;1.02;;;;;;;;;;5053945;28;20112;-54
2021/07/14 03:59:44;;;;;;;0.93;0.70;;;;;;;;;;5054169;28;20036;-53
2021/07/14 04:02:11;;;;;;;3.17;0.85;;;;;;;;;;5053825;28;20029;-54
2021/07/14 04:04:37;;;;;;;4.28;1.13;;;;;;;;;;5054211;28;20025;-54
2021/07/14 04:07:07;;;;;;;5.55;1.25;;;;;;;;;;5053759;28;20021;-55
2021/07/14 04:09:32;;;;;;;3.13;1.13;;;;;;;;;;5053747;28;20040;-54
2021/07/14 04:11:59;;;;;;;4.38;2.15;;;;;;;;;;5053699;28;20112;-54
2021/07/14 04:14:25;;;;;;;4.40;1.20;;;;;;;;;;5053499;28;20021;-53
2021/07/14 04:16:51;;;;;;;2.15;1.02;;;;;;;;;;5053709;28;20533;-54
2021/07/14 04:19:16;;;;;;;3.05;0.90;;;;;;;;;;5051758;28;20100;-54
2021/07/14 04:21:41;;;;;;;7.55;1.20;;;;;;;;;;5053104;28;20387;-54
2021/07/14 04:24:07;;;;;;;5.70;1.20;;;;;;;;;;5053840;28;20021;-56
2021/07/14 04:26:33;;;;;;;9.38;0.98;;;;;;;;;;5053296;28;20475;-54
2021/07/14 04:28:58;;;;;;;1.98;0.98;;;;;;;;;;5068763;28;20451;-53
2021/07/14 04:31:23;;;;;;;4.05;0.70;;;;;;;;;;5053535;28;20107;-54
2021/07/14 04:33:49;;;;;;;7.80;1.02;;;;;;;;;;5053335;28;20035;-56
2021/07/14 04:36:14;;;;;;;1.85;1.20;;;;;;;;;;5053236;28;20024;-54
2021/07/14 04:38:39;;;;;;;7.40;0.90;;;;;;;;;;5053121;28;20096;-54
2021/07/14 04:41:05;;;;;;;4.95;1.42;;;;;;;;;;5053177;28;20048;-54
2021/07/14 04:43:30;;;;;;;4.78;0.90;;;;;;;;;;5053081;28;20024;-54
2021/07/14 04:45:56;;;;;;;5.25;1.05;;;;;;;;;;5053330;28;20398;-54
2021/07/14 04:48:22;;;;;;;1.65;1.10;;;;;;;;;;5052990;28;20486;-53
2021/07/14 04:50:48;;;;;;;2.22;1.05;;;;;;;;;;5052702;28;20484;-54
2021/07/14 04:53:13;;;;;;;4.78;1.17;;;;;;;;;;5053117;28;20091;-54
2021/07/14 04:55:39;;;;;;;3.30;0.98;;;;;;;;;;5052921;28;20037;-54
2021/07/14 04:58:05;;;;;;;4.45;1.77;;;;;;;;;;5052876;28;20079;-54
2021/07/14 05:00:30;;;;;;;2.00;0.75;;;;;;;;;;5052976;28;20068;-54
2021/07/14 05:02:56;;;;;;;4.78;1.00;;;;;;;;;;5053044;28;20021;-54
2021/07/14 05:05:21;;;;;;;3.92;1.38;;;;;;;;;;5052908;28;20068;-54
2021/07/14 05:07:47;;;;;;;5.90;1.60;;;;;;;;;;5052843;28;20021;-54
2021/07/14 05:10:13;;;;;;;5.13;1.30;;;;;;;;;;5052816;28;20036;-54
2021/07/14 05:12:41;;;;;;;6.38;0.98;;;;;;;;;;5052616;28;20013;-54
2021/07/14 05:15:06;;;;;;;3.10;1.00;;;;;;;;;;5052877;28;20430;-54
2021/07/14 05:17:32;;;;;;;4.03;1.27;;;;;;;;;;5051285;28;20043;-53
2021/07/14 05:19:57;;;;;;;6.25;0.90;;;;;;;;;;5052491;28;20037;-53
2021/07/14 05:22:23;;;;;;;4.30;1.15;;;;;;;;;;5052599;28;20017;-53
2021/07/14 05:24:48;;;;;;;2.30;1.25;;;;;;;;;;5052420;28;20032;-54
2021/07/14 05:27:14;;;;;;;4.03;1.60;;;;;;;;;;5052383;28;20019;-54
2021/07/14 05:29:39;;;;;;;6.97;1.42;;;;;;;;;;5052391;28;20064;-54
2021/07/14 05:32:05;;;;;;;3.10;1.17;;;;;;;;;;5052213;28;20093;-53
2021/07/14 05:34:30;;;;;;;3.50;1.10;;;;;;;;;;5052544;28;20076;-54
2021/07/14 05:36:56;;;;;;;5.60;1.17;;;;;;;;;;5052633;28;20013;-54
2021/07/14 05:39:21;;;;;;;6.43;1.80;;;;;;;;;;5052373;28;20033;-54
2021/07/14 05:41:47;;;;;;;4.85;1.25;;;;;;;;;;5052228;28;20025;-54
2021/07/14 05:44:12;;;;;;;3.13;1.08;;;;;;;;;;5052458;28;20029;-53
2021/07/14 05:46:37;;;;;;;5.88;1.02;;;;;;;;;;5052198;28;20449;-52
2021/07/14 05:49:03;;;;;;;9.00;1.10;;;;;;;;;;5052373;28;20024;-53
2021/07/14 05:51:29;;;;;;;11.73;0.73;;;;;;;;;;5052006;28;20407;-52
2021/07/14 05:53:55;;;;;;;5.20;1.15;;;;;;;;;;5052295;28;20116;-54
2021/07/14 05:56:20;;;;;;;3.08;1.20;;;;;;;;;;5052160;28;20105;-54
2021/07/14 05:58:45;;;;;;;3.03;1.10;;;;;;;;;;5052337;28;20021;-54
2021/07/14 06:01:11;;;;;;;1.60;0.90;;;;;;;;;;5051832;28;20044;-53
2021/07/14 06:03:36;;;;;;;5.18;1.17;;;;;;;;;;5052177;28;20029;-54
2021/07/14 06:06:02;;;;;;;4.45;1.10;;;;;;;;;;5052273;28;20056;-54
2021/07/14 06:08:27;;;;;;;3.13;1.80;;;;;;;;;;5051947;28;20482;-54
2021/07/14 06:10:52;;;;;;;4.93;0.90;;;;;;;;;;5052053;28;20032;-53
2021/07/14 06:13:18;;;;;;;3.08;1.40;;;;;;;;;;5051771;28;20036;-54
2021/07/14 06:15:43;;;;;;;1.33;0.73;;;;;;;;;;5051969;28;20460;-53
2021/07/14 06:18:09;;;;;;;3.33;1.10;;;;;;;;;;5051999;28;20115;-53
2021/07/14 06:20:34;;;;;;;9.57;1.55;;;;;;;;;;5051693;28;20025;-53
2021/07/14 06:22:59;;;;;;;6.38;0.90;;;;;;;;;;5051852;28;20033;-53
2021/07/14 06:25:25;;;;;;;2.65;1.30;;;;;;;;;;5051778;28;20109;-53
2021/07/14 06:27:50;;;;;;;3.03;1.10;;;;;;;;;;5052108;28;20022;-54
2021/07/14 06:30:17;;;;;;;4.30;1.20;;;;;;;;;;5051716;28;20025;-54
2021/07/14 06:32:43;;;;;;;4.28;1.73;;;;;;;;;;5051979;28;20032;-54
2021/07/14 06:35:10;;;;;;;2.45;1.05;;;;;;;;;;5051776;28;20031;-54
2021/07/14 06:37:37;;;;;;;4.43;1.30;;;;;;;;;;5051689;28;20492;-53
2021/07/14 06:40:04;;;;;;;5.82;1.10;;;;;;;;;;5051976;28;20416;-54
2021/07/14 06:42:30;;;;;;;5.60;1.52;;;;;;;;;;5051854;28;20040;-54
2021/07/14 06:44:56;;;;;;;6.72;3.40;;;;;;;;;;5055621;28;20021;-54
2021/07/14 06:47:21;;;;;;;6.30;2.25;;;;;;;;;;5055362;28;20116;-53
2021/07/14 06:49:46;;;;;;;4.70;2.33;;;;;;;;;;5055032;28;20020;-53
2021/07/14 06:52:12;;;;;;;15.48;4.05;;;;;;;;;;5055174;28;20174;-53
2021/07/14 06:54:38;;;;;;;4.38;3.03;;;;;;;;;;5055359;28;20102;-53
2021/07/14 06:57:05;;;;;;;5.53;3.50;;;;;;;;;;5055351;28;20032;-53
2021/07/14 06:59:30;;;;;;;18.92;4.57;;;;;;;;;;5055016;28;20043;-54
2021/07/14 07:01:56;;;;;;;11.88;4.10;;;;;;;;;;5055010;28;20379;-53
2021/07/14 07:04:21;;;;;;;9.85;3.28;;;;;;;;;;5055199;28;20052;-53
2021/07/14 07:06:46;;;;;;;7.90;3.70;;;;;;;;;;5055070;28;20029;-53
2021/07/14 07:09:12;;;;;;;4.65;3.45;;;;;;;;;;5054812;28;20017;-54
2021/07/14 07:11:37;;;;;;;8.35;4.20;;;;;;;;;;5055106;28;20036;-53
2021/07/14 07:14:03;;;;;;;7.45;4.28;;;;;;;;;;5055079;28;20028;-53
2021/07/14 07:16:28;;;;;;;9.18;3.45;;;;;;;;;;5054799;28;20463;-52
2021/07/14 07:18:54;;;;;;;8.35;4.22;;;;;;;;;;5054606;28;20017;-53
2021/07/14 07:21:19;;;;;;;6.13;3.30;;;;;;;;;;5054681;28;20044;-53
2021/07/14 07:23:47;;;;;;;7.53;3.47;;;;;;;;;;5054761;28;20048;-53
2021/07/14 07:26:13;;;;;;;7.22;4.47;;;;;;;;;;5054772;28;20448;-52
2021/07/14 07:28:41;;;;;;;7.07;3.83;;;;;;;;;;5054872;28;20049;-53
2021/07/14 07:31:09;;;;;;;6.57;4.00;;;;;;;;;;5054557;28;20426;-53
2021/07/14 07:33:35;;;;;;;14.05;5.00;;;;;;;;;;5069715;28;20386;-53
2021/07/14 07:36:00;;;;;;;10.52;4.40;;;;;;;;;;5054563;28;20025;-52
2021/07/14 07:38:26;;;;;;;9.50;4.70;;;;;;;;;;5054637;28;20021;-53
2021/07/14 07:40:53;;;;;;;6.40;3.67;;;;;;;;;;5054251;28;20040;-53
2021/07/14 07:43:20;;;;;;;7.80;4.15;;;;;;;;;;5053000;28;20017;-53
2021/07/14 07:45:45;;;;;;;6.40;3.70;;;;;;;;;;5054283;28;20036;-53
2021/07/14 07:48:11;;;;;;;9.35;3.67;;;;;;;;;;5054199;28;20017;-54
2021/07/14 07:50:36;;;;;;;8.77;3.10;;;;;;;;;;5054000;28;20077;-53
2021/07/14 07:53:02;;;;;;;9.20;3.95;;;;;;;;;;5054109;28;20075;-53
2021/07/14 07:55:27;;;;;;;6.07;4.22;;;;;;;;;;5053095;28;20426;-52
2021/07/14 07:57:52;;;;;;;11.48;3.85;;;;;;;;;;5053971;28;20025;-52
2021/07/14 08:00:20;;;;;;;5.68;3.40;;;;;;;;;;5054074;28;20047;-52
2021/07/14 08:02:45;;;;;;;8.73;3.47;;;;;;;;;;5053872;28;20017;-53
2021/07/14 08:05:11;;;;;;;6.50;4.18;;;;;;;;;;5054129;28;20092;-52
2021/07/14 08:07:36;;;;;;;5.60;3.70;;;;;;;;;;5053871;28;20013;-52
2021/07/14 08:10:03;;;;;;;6.43;4.00;;;;;;;;;;5053881;28;20147;-54
2021/07/14 08:12:28;;;;;;;5.80;3.42;;;;;;;;;;5053911;28;20092;-54
2021/07/14 08:14:54;;;;;;;6.00;3.90;;;;;;;;;;5053708;28;20120;-53
2021/07/14 08:17:19;;;;;;;8.85;4.45;;;;;;;;;;5053851;28;20021;-54
2021/07/14 08:19:45;;;;;;;7.15;4.00;;;;;;;;;;5053581;28;20033;-51
2021/07/14 08:22:10;;;;;;;6.95;4.00;;;;;;;;;;5053754;28;20021;-54
2021/07/14 08:24:36;;;;;;;8.70;4.15;;;;;;;;;;5053467;28;20377;-52
2021/07/14 08:27:01;;;;;;;9.38;4.32;;;;;;;;;;5053534;28;20017;-53
2021/07/14 08:29:27;;;;;;;5.47;3.22;;;;;;;;;;5053468;28;20028;-53
2021/07/14 08:31:54;;;;;;;5.80;3.83;;;;;;;;;;5053402;28;20036;-53
2021/07/14 08:34:19;;;;;;;8.77;3.28;;;;;;;;;;5053539;28;20048;-52
2021/07/14 08:36:45;;;;;;;11.07;2.15;;;;;;;;;;5051946;28;20487;-52
2021/07/14 08:39:10;;;;;;;8.95;2.67;;;;;;;;;;5053233;28;20440;-53
2021/07/14 08:41:36;;;;;;;4.38;2.03;;;;;;;;;;5053365;28;20040;-53
2021/07/14 08:44:02;;;;;;;3.50;1.70;;;;;;;;;;5053425;28;20086;-53
2021/07/14 08:46:28;;;;;;;4.80;1.65;;;;;;;;;;5053177;28;20451;-53
2021/07/14 08:48:54;;;;;;;1.55;1.33;;;;;;;;;;5053311;28;20081;-52
2021/07/14 08:51:19;;;;;;;3.80;2.15;;;;;;;;;;5051482;28;20044;-52
2021/07/14 08:53:47;;;;;;;12.05;2.70;;;;;;;;;;5053085;28;20070;-54
2021/07/14 08:56:12;;;;;;;4.65;2.17;;;;;;;;;;5053198;28;20041;-53
2021/07/14 08:58:38;;;;;;;5.90;1.65;;;;;;;;;;5052948;28;20078;-53
2021/07/14 09:01:03;;;;;;;5.60;1.75;;;;;;;;;;5052764;28;20555;-52
2021/07/14 09:03:28;;;;;;;3.63;1.50;;;;;;;;;;5051496;28;20383;-53
2021/07/14 09:05:54;;;;;;;4.03;1.63;;;;;;;;;;5052396;28;20104;-54
2021/07/14 09:08:20;;;;;;;8.65;1.63;;;;;;;;;;5052945;28;20375;-54
2021/07/14 09:10:45;;;;;;;5.22;2.05;;;;;;;;;;5052704;28;20474;-53
2021/07/14 09:13:11;;;;;;;3.20;1.10;;;;;;;;;;5052482;28;20040;-54
2021/07/14 09:15:41;;;;;;;3.17;1.20;;;;;;;;;;5052585;28;20032;-53
2021/07/14 09:18:07;;;;;;;6.22;1.65;;;;;;;;;;5052562;28;20033;-53
2021/07/14 09:20:33;;;;;;;2.80;1.88;;;;;;;;;;5052551;28;20040;-53
2021/07/14 09:23:02;;;;;;;3.65;1.27;;;;;;;;;;5052824;28;20025;-53
2021/07/14 09:25:28;;;;;;;3.13;1.20;;;;;;;;;;5052354;28;20024;-53
2021/07/14 09:27:58;;;;;;;5.53;1.40;;;;;;;;;;5052691;28;20035;-54
2021/07/14 09:30:24;;;;;;;2.08;0.90;;;;;;;;;;5051049;28;20032;-53
2021/07/14 09:32:50;;;;;;;1.85;0.75;;;;;;;;;;5052368;28;20020;-53
2021/07/14 09:35:49;;;;;;;5.25;0.90;;;;;;;;;;5052533;28;20052;-54
2021/07/14 09:38:14;;;;;;;3.70;1.02;;;;;;;;;;5039944;28;20037;-53
2021/07/14 09:40:40;;;;;;;3.70;1.38;;;;;;;;;;5052389;28;20036;-53
2021/07/14 09:43:13;;;;;;;2.83;0.82;;;;;;;;;;5052367;28;20467;-53
2021/07/14 09:45:52;;;;;;;3.90;1.17;;;;;;;;;;5052333;28;20091;-53
2021/07/14 09:48:28;;;;;;;15.65;1.73;;;;;;;;;;5052136;28;20032;-54
2021/07/14 09:50:54;;;;;;;2.00;0.85;;;;;;;;;;5051858;28;20537;-53
2021/07/14 09:53:21;;;;;;;1.35;0.55;;;;;;;;;;5052160;28;20471;-54
2021/07/14 09:55:48;;;;;;;8.35;1.08;;;;;;;;;;5052057;28;20025;-53
2021/07/14 09:58:15;;;;;;;3.70;1.33;;;;;;;;;;5052039;28;20463;-54
2021/07/14 10:00:41;;;;;;;3.88;1.20;;;;;;;;;;5052071;28;20041;-53
2021/07/14 10:03:07;;;;;;;4.13;1.38;;;;;;;;;;5051960;28;20083;-53
2021/07/14 10:05:32;;;;;;;5.82;0.90;;;;;;;;;;5052319;28;20033;-54
2021/07/14 10:08:13;;;;;;;4.18;0.70;;;;;;;;;;5052152;28;20017;-53
2021/07/14 10:10:38;;;;;;;6.28;1.08;;;;;;;;;;5051967;28;20026;-52
2021/07/14 10:13:08;;;;;;;3.83;1.35;;;;;;;;;;5052096;28;20395;-53
2021/07/14 10:15:33;;;;;;;1.45;0.88;;;;;;;;;;5050692;28;20029;-53
2021/07/14 10:17:59;;;;;;;3.47;0.90;;;;;;;;;;5052944;28;20103;-54
2021/07/14 10:20:32;;;;;;;4.22;1.08;;;;;;;;;;5054740;28;20471;-52
2021/07/14 10:22:59;;;;;;;1.52;0.60;;;;;;;;;;5056108;28;20053;-54
2021/07/14 10:25:25;;;;;;;1.90;1.13;;;;;;;;;;5055636;28;20487;-54
2021/07/14 10:27:51;;;;;;;4.85;1.00;;;;;;;;;;5055731;28;20068;-53
2021/07/14 10:30:17;;;;;;;3.70;1.20;;;;;;;;;;5055883;28;20021;-52
2021/07/14 10:32:43;;;;;;;3.55;1.00;;;;;;;;;;5055847;28;20351;-53
2021/07/14 10:35:14;;;;;;;10.40;1.42;;;;;;;;;;5055993;28;20104;-52
2021/07/14 10:37:40;;;;;;;7.63;1.50;;;;;;;;;;5055741;28;20040;-53
2021/07/14 10:40:07;;;;;;;0.95;0.73;;;;;;;;;;5055551;28;20082;-54
2021/07/14 10:42:33;;;;;;;3.40;0.75;;;;;;;;;;5055382;28;20032;-54
2021/07/14 10:44:59;;;;;;;6.22;1.00;;;;;;;;;;5055603;28;20025;-52
2021/07/14 10:47:25;;;;;;;7.30;0.75;;;;;;;;;;5055345;28;20533;-53
2021/07/14 10:49:51;;;;;;;3.60;0.80;;;;;;;;;;5055180;28;20029;-54
2021/07/14 10:52:16;;;;;;;7.75;0.90;;;;;;;;;;5055434;28;20120;-54
2021/07/14 10:54:42;;;;;;;8.88;1.30;;;;;;;;;;5055309;28;20112;-54
2021/07/14 10:57:08;;;;;;;2.20;1.00;;;;;;;;;;5055217;28;20032;-54
2021/07/14 10:59:34;;;;;;;1.00;0.73;;;;;;;;;;5054979;28;20017;-54
2021/07/14 11:01:59;;;;;;;4.88;1.10;;;;;;;;;;5055034;28;20188;-53
2021/07/14 11:04:27;;;;;;;2.03;1.08;;;;;;;;;;5055112;28;20483;-53
2021/07/14 11:06:57;;;;;;;4.03;0.80;;;;;;;;;;5054945;28;20037;-53
2021/07/14 11:09:51;;;;;;;2.78;0.77;;;;;;;;;;5054959;28;20029;-53
2021/07/14 11:12:29;;;;;;;2.67;0.70;;;;;;;;;;5049903;28;20047;-53
2021/07/14 11:14:58;;;;;;;5.88;0.70;;;;;;;;;;5055132;28;20032;-53
2021/07/14 11:17:27;;;;;;;3.75;0.65;;;;;;;;;;5054992;28;20021;-53
2021/07/14 11:19:54;;;;;;;2.55;0.63;;;;;;;;;;5054686;28;20044;-53
2021/07/14 11:22:36;;;;;;;3.97;1.58;;;;;;;;;;5054844;28;20013;-53
2021/07/14 11:25:02;;;;;;;1.13;0.70;;;;;;;;;;5055085;28;20033;-54
2021/07/14 11:27:28;;;;;;;4.80;1.00;;;;;;;;;;5054740;28;20141;-52
2021/07/14 11:29:54;;;;;;;1.77;0.77;;;;;;;;;;5054381;28;20051;-54
2021/07/14 11:32:37;;;;;;;4.07;0.63;;;;;;;;;;5053204;28;20025;-53
2021/07/14 11:35:06;;;;;;;3.15;0.70;;;;;;;;;;5054785;28;20414;-54
2021/07/14 11:37:32;;;;;;;9.93;1.45;;;;;;;;;;5054639;28;20025;-53
2021/07/14 11:40:16;;;;;;;1.92;0.75;;;;;;;;;;5054354;28;20517;-54
2021/07/14 11:42:48;;;;;;;4.80;1.58;;;;;;;;;;5053885;28;20040;-54
2021/07/14 11:45:14;;;;;;;6.55;1.55;;;;;;;;;;5053233;28;20029;-52
2021/07/14 11:47:39;;;;;;;1.27;0.80;;;;;;;;;;5054302;28;20092;-54
2021/07/14 11:50:05;;;;;;;6.97;0.85;;;;;;;;;;5069290;28;20103;-53
2021/07/14 11:52:41;;;;;;;7.00;1.13;;;;;;;;;;5069479;28;20032;-53
2021/07/14 11:55:22;;;;;;;2.45;0.75;;;;;;;;;;5054383;28;20108;-53
2021/07/14 11:57:48;;;;;;;6.03;1.02;;;;;;;;;;5054158;28;20029;-53
2021/07/14 12:00:14;;;;;;;2.08;1.00;;;;;;;;;;5054232;28;20039;-53
2021/07/14 12:02:39;;;;;;;5.53;0.90;;;;;;;;;;5053919;28;20024;-52
2021/07/14 12:05:09;;;;;;;3.83;1.10;;;;;;;;;;5053951;28;20563;-53
2021/07/14 12:07:38;;;;;;;1.73;0.88;;;;;;;;;;5069309;28;20083;-53
2021/07/14 12:10:12;;;;;;;3.00;0.82;;;;;;;;;;5053856;28;20443;-53
2021/07/14 12:12:44;;;;;;;3.03;0.80;;;;;;;;;;5053644;28;20033;-53
2021/07/14 12:15:10;;;;;;;4.68;0.73;;;;;;;;;;5053961;28;20040;-53
2021/07/14 12:17:35;;;;;;;3.85;0.82;;;;;;;;;;5053247;28;20446;-54
2021/07/14 12:20:01;;;;;;;5.63;0.85;;;;;;;;;;5053883;28;20036;-54
2021/07/14 12:22:27;;;;;;;3.75;0.63;;;;;;;;;;5053768;28;20108;-53
2021/07/14 12:24:54;;;;;;;1.35;0.60;;;;;;;;;;5053568;28;20037;-53
2021/07/14 12:27:21;;;;;;;1.65;0.60;;;;;;;;;;5052215;28;20534;-53
2021/07/14 12:29:49;;;;;;;4.75;0.80;;;;;;;;;;5052319;28;20027;-53
2021/07/14 12:32:15;;;;;;;3.50;0.90;;;;;;;;;;5053649;28;20044;-53
2021/07/14 12:34:44;;;;;;;10.68;0.77;;;;;;;;;;5053290;28;20479;-53
2021/07/14 12:37:10;;;;;;;3.08;0.85;;;;;;;;;;5052243;28;20451;-54
2021/07/14 12:39:36;;;;;;;4.38;0.80;;;;;;;;;;5053087;28;20033;-52
2021/07/14 12:42:06;;;;;;;2.78;0.90;;;;;;;;;;5052853;28;20074;-53
2021/07/14 12:44:32;;;;;;;2.95;0.75;;;;;;;;;;5053193;28;20025;-54
2021/07/14 12:47:13;;;;;;;2.72;0.77;;;;;;;;;;5053350;28;20031;-53
2021/07/14 12:49:38;;;;;;;2.25;0.55;;;;;;;;;;5052894;28;20120;-53
2021/07/14 12:52:05;;;;;;;5.85;0.77;;;;;;;;;;5053206;28;20037;-53
2021/07/14 12:54:31;;;;;;;2.83;0.90;;;;;;;;;;5053249;28;20102;-53
2021/07/14 12:57:12;;;;;;;6.53;0.98;;;;;;;;;;5052981;28;20593;-53
2021/07/14 13:00:07;;;;;;;5.13;1.02;;;;;;;;;;5052681;28;20483;-54
2021/07/14 13:02:37;;;;;;;2.25;0.80;;;;;;;;;;5048186;28;20045;-54
2021/07/14 13:05:04;;;;;;;1.92;0.80;;;;;;;;;;5052836;28;20050;-53
2021/07/14 13:07:30;;;;;;;4.60;0.98;;;;;;;;;;5052743;28;20016;-53
2021/07/14 13:09:57;;;;;;;2.67;0.63;;;;;;;;;;5052837;28;20028;-53
2021/07/14 13:12:24;;;;;;;2.85;0.40;;;;;;;;;;5051366;28;20075;-52
2021/07/14 13:14:50;;;;;;;3.05;1.55;;;;;;;;;;5052618;28;20044;-53
2021/07/14 13:17:30;;;;;;;1.55;0.60;;;;;;;;;;5053176;28;20021;-53
2021/07/14 13:20:04;;;;;;;4.78;0.80;;;;;;;;;;5052569;28;20044;-54
2021/07/14 13:22:30;;;;;;;5.18;1.08;;;;;;;;;;5052633;28;20402;-53
2021/07/14 13:25:03;;;;;;;4.40;0.90;;;;;;;;;;5052506;28;20028;-54
2021/07/14 13:27:34;;;;;;;6.03;1.23;;;;;;;;;;5051084;28;20017;-53
2021/07/14 13:30:16;;;;;;;7.20;0.90;;;;;;;;;;5052450;28;20032;-53
2021/07/14 13:32:52;;;;;;;1.50;0.47;;;;;;;;;;5052706;28;20361;-53
2021/07/14 13:35:19;;;;;;;3.42;0.82;;;;;;;;;;5052360;28;20475;-54
2021/07/14 13:37:44;;;;;;;3.33;1.17;;;;;;;;;;5051148;28;20013;-54
2021/07/14 13:40:26;;;;;;;2.17;1.15;;;;;;;;;;5067710;28;20048;-53
2021/07/14 13:42:52;;;;;;;2.40;0.80;;;;;;;;;;5052268;28;20460;-53
2021/07/14 13:45:31;;;;;;;3.08;0.90;;;;;;;;;;5050953;28;20047;-53
2021/07/14 13:47:57;;;;;;;1.33;0.50;;;;;;;;;;5052275;28;20029;-54
2021/07/14 13:50:23;;;;;;;2.40;0.57;;;;;;;;;;5050542;28;20395;-54
2021/07/14 13:52:55;;;;;;;4.25;0.98;;;;;;;;;;5054448;28;20029;-54
2021/07/14 13:55:21;;;;;;;1.73;0.73;;;;;;;;;;5056382;28;20040;-53
2021/07/14 13:57:46;;;;;;;2.00;0.70;;;;;;;;;;5056313;28;20025;-54
2021/07/14 14:00:13;;;;;;;3.53;0.50;;;;;;;;;;5056237;28;20422;-54
2021/07/14 14:02:39;;;;;;;6.43;1.08;;;;;;;;;;5056108;28;20109;-54
2021/07/14 14:05:05;;;;;;;2.70;0.70;;;;;;;;;;5056335;28;20122;-54
2021/07/14 14:07:32;;;;;;;6.50;0.75;;;;;;;;;;5056168;28;20020;-54
2021/07/14 14:10:00;;;;;;;4.50;0.90;;;;;;;;;;5056227;28;20099;-53
2021/07/14 14:12:27;;;;;;;2.67;0.93;;;;;;;;;;5055849;28;20027;-53
2021/07/14 14:14:53;;;;;;;3.78;1.10;;;;;;;;;;5056330;28;20053;-54
2021/07/14 14:17:19;;;;;;;2.72;0.60;;;;;;;;;;5056007;28;20020;-54
2021/07/14 14:19:45;;;;;;;2.90;0.47;;;;;;;;;;5055836;28;20045;-54
2021/07/14 14:22:11;;;;;;;7.13;0.57;;;;;;;;;;5056151;28;20013;-53
2021/07/14 14:24:37;;;;;;;4.70;0.55;;;;;;;;;;5055823;28;20814;-54
2021/07/14 14:27:05;;;;;;;1.73;0.47;;;;;;;;;;5056061;28;20024;-53
2021/07/14 14:29:30;;;;;;;7.63;0.77;;;;;;;;;;5055680;28;20118;-54
2021/07/14 14:31:56;;;;;;;4.82;0.68;;;;;;;;;;5055978;28;20025;-53
2021/07/14 14:34:21;;;;;;;2.40;0.77;;;;;;;;;;5054510;28;20479;-54
2021/07/14 14:36:47;;;;;;;2.83;0.82;;;;;;;;;;5055645;28;20344;-54
2021/07/14 14:39:13;;;;;;;4.93;0.82;;;;;;;;;;5055402;28;20087;-53
2021/07/14 14:41:39;;;;;;;6.25;1.10;;;;;;;;;;5055622;28;20108;-54
2021/07/14 14:44:05;;;;;;;5.00;0.70;;;;;;;;;;5055827;28;20103;-52
2021/07/14 14:46:30;;;;;;;5.05;1.02;;;;;;;;;;5055387;28;20482;-54
2021/07/14 14:48:56;;;;;;;2.67;0.70;;;;;;;;;;5055698;28;20504;-52